CheckWX is a tool to help pilots better visualize weather data.  It is not intended as a substitute for an official pre-flight weather briefing.

05:41:10 UTC

MMTJ TAF
General Abelardo L. Rodríguez International Airport
Tijuana, Mexico
TAF MMTJ 200528Z 2006/2112 30005KT P6SM SCT250 TX14/2020Z TN02/2012Z FM201500 30012KT P6SM SCT020 BKN250 FM202100 30010KT P6SM BKN020 OVC080 TEMPO 2022/2102 5SM RA FM210200 25015G25KT 5SM RA OVC020

Feb-20@
06:00 UTC

Feb-20 @ 06:00 UTC

Feb-20@
15:00 UTC

Feb-20 @ 15:00 UTC

TAF MMTJ 200528Z 2006/2112 30005KT P6SM SCT250 TX14/2020Z TN02/2012Z
Wind
  • 300° at 5 KTS
Visibility
10,000+ meters
Cloud Levels
  • Scattered at 25,000' AGL

Feb-20@
15:00 UTC

Feb-20 @ 15:00 UTC

Feb-20@
21:00 UTC

Feb-20 @ 21:00 UTC

FM201500 30012KT P6SM SCT020 BKN250

From

FromStandard forecast or significant change

Wind
  • 300° at 12 KTS
Visibility
10,000+ meters
Cloud Levels
  • Scattered at 2,000' AGL
  • Broken at 25,000' AGL

Feb-20@
21:00 UTC

Feb-20 @ 21:00 UTC

Feb-21@
02:00 UTC

Feb-21 @ 02:00 UTC

FM202100 30010KT P6SM BKN020 OVC080

From

FromStandard forecast or significant change

Wind
  • 300° at 10 KTS
Visibility
10,000+ meters
Cloud Levels
  • Broken at 2,000' AGL
  • Overcast at 8,000' AGL

Feb-20@
22:00 UTC

Feb-20 @ 22:00 UTC

Feb-21@
02:00 UTC

Feb-21 @ 02:00 UTC

TEMPO 2022/2102 5SM RA

Temporary

TemporaryChanges expected for less than half the time period

Visibility
8,047 meters
Conditions
Rain

Feb-21@
02:00 UTC

Feb-21 @ 02:00 UTC

Feb-21@
12:00 UTC

Feb-21 @ 12:00 UTC

FM210200 25015G25KT 5SM RA OVC020

From

FromStandard forecast or significant change

Wind
  • 250° at 15 KTS
  • {Gusting to 25 KTS
Visibility
8,047 meters
Conditions
Rain
Cloud Levels
  • Overcast at 2,000' AGL